sensor_id;sensor_type;location;lat;lon;timestamp;P1;durP1;ratioP1;P2;durP2;ratioP2
65656;SDS011;57397;50.096;14.404;2023-04-06T00:01:24;5.15;;;3.40;;
65656;SDS011;57397;50.096;14.404;2023-04-06T00:03:50;6.38;;;4.03;;
65656;SDS011;57397;50.096;14.404;2023-04-06T00:06:16;6.40;;;4.13;;
65656;SDS011;57397;50.096;14.404;2023-04-06T00:08:41;5.10;;;3.47;;
65656;SDS011;57397;50.096;14.404;2023-04-06T00:11:08;7.03;;;4.10;;
65656;SDS011;57397;50.096;14.404;2023-04-06T00:13:33;6.85;;;3.83;;
65656;SDS011;57397;50.096;14.404;2023-04-06T00:15:59;6.10;;;3.83;;
65656;SDS011;57397;50.096;14.404;2023-04-06T00:18:25;5.85;;;3.80;;
65656;SDS011;57397;50.096;14.404;2023-04-06T00:20:50;7.43;;;3.88;;
65656;SDS011;57397;50.096;14.404;2023-04-06T00:23:16;6.35;;;4.15;;
65656;SDS011;57397;50.096;14.404;2023-04-06T00:25:41;5.78;;;3.75;;
65656;SDS011;57397;50.096;14.404;2023-04-06T00:28:07;5.38;;;3.72;;
65656;SDS011;57397;50.096;14.404;2023-04-06T00:30:33;6.20;;;4.10;;
65656;SDS011;57397;50.096;14.404;2023-04-06T00:32:58;6.88;;;4.03;;
65656;SDS011;57397;50.096;14.404;2023-04-06T00:35:27;5.90;;;4.05;;
65656;SDS011;57397;50.096;14.404;2023-04-06T00:37:52;6.53;;;3.88;;
65656;SDS011;57397;50.096;14.404;2023-04-06T00:40:18;6.57;;;4.15;;
65656;SDS011;57397;50.096;14.404;2023-04-06T00:42:43;6.82;;;3.97;;
65656;SDS011;57397;50.096;14.404;2023-04-06T00:45:09;6.32;;;4.07;;
65656;SDS011;57397;50.096;14.404;2023-04-06T00:47:35;6.30;;;4.50;;
65656;SDS011;57397;50.096;14.404;2023-04-06T00:50:00;6.57;;;4.05;;
65656;SDS011;57397;50.096;14.404;2023-04-06T00:52:26;7.35;;;4.10;;
65656;SDS011;57397;50.096;14.404;2023-04-06T00:54:51;6.40;;;4.10;;
65656;SDS011;57397;50.096;14.404;2023-04-06T00:57:17;6.72;;;4.45;;
65656;SDS011;57397;50.096;14.404;2023-04-06T00:59:43;8.13;;;4.50;;
65656;SDS011;57397;50.096;14.404;2023-04-06T01:02:09;6.72;;;3.95;;
65656;SDS011;57397;50.096;14.404;2023-04-06T01:04:34;6.78;;;4.18;;
65656;SDS011;57397;50.096;14.404;2023-04-06T01:07:00;6.78;;;4.45;;
65656;SDS011;57397;50.096;14.404;2023-04-06T01:09:28;6.53;;;4.10;;
65656;SDS011;57397;50.096;14.404;2023-04-06T01:11:57;7.20;;;4.03;;
65656;SDS011;57397;50.096;14.404;2023-04-06T01:14:23;5.95;;;4.07;;
65656;SDS011;57397;50.096;14.404;2023-04-06T01:16:50;7.22;;;4.38;;
65656;SDS011;57397;50.096;14.404;2023-04-06T01:19:16;6.63;;;3.95;;
65656;SDS011;57397;50.096;14.404;2023-04-06T01:21:41;5.57;;;3.80;;
65656;SDS011;57397;50.096;14.404;2023-04-06T01:24:08;6.85;;;4.07;;
65656;SDS011;57397;50.096;14.404;2023-04-06T01:26:34;6.88;;;3.88;;
65656;SDS011;57397;50.096;14.404;2023-04-06T01:29:00;6.35;;;3.90;;
65656;SDS011;57397;50.096;14.404;2023-04-06T01:31:29;6.05;;;4.00;;
65656;SDS011;57397;50.096;14.404;2023-04-06T01:33:55;5.75;;;3.97;;
65656;SDS011;57397;50.096;14.404;2023-04-06T01:36:20;5.55;;;3.90;;
65656;SDS011;57397;50.096;14.404;2023-04-06T01:38:46;6.35;;;4.28;;
65656;SDS011;57397;50.096;14.404;2023-04-06T01:41:12;6.63;;;3.97;;
65656;SDS011;57397;50.096;14.404;2023-04-06T01:43:37;7.15;;;4.05;;
65656;SDS011;57397;50.096;14.404;2023-04-06T01:46:03;5.38;;;3.55;;
65656;SDS011;57397;50.096;14.404;2023-04-06T01:48:28;6.55;;;4.00;;
65656;SDS011;57397;50.096;14.404;2023-04-06T01:50:54;6.28;;;3.72;;
65656;SDS011;57397;50.096;14.404;2023-04-06T01:53:20;5.53;;;3.58;;
65656;SDS011;57397;50.096;14.404;2023-04-06T01:55:46;6.43;;;4.05;;
65656;SDS011;57397;50.096;14.404;2023-04-06T01:58:11;5.88;;;3.70;;
65656;SDS011;57397;50.096;14.404;2023-04-06T02:00:37;8.40;;;3.70;;
65656;SDS011;57397;50.096;14.404;2023-04-06T02:03:03;4.80;;;3.28;;
65656;SDS011;57397;50.096;14.404;2023-04-06T02:05:29;5.93;;;3.70;;
65656;SDS011;57397;50.096;14.404;2023-04-06T02:07:55;5.47;;;3.63;;
65656;SDS011;57397;50.096;14.404;2023-04-06T02:10:21;5.22;;;3.50;;
65656;SDS011;57397;50.096;14.404;2023-04-06T02:12:47;4.80;;;3.35;;
65656;SDS011;57397;50.096;14.404;2023-04-06T02:15:12;4.95;;;3.35;;
65656;SDS011;57397;50.096;14.404;2023-04-06T02:17:38;5.07;;;2.90;;
65656;SDS011;57397;50.096;14.404;2023-04-06T02:20:04;4.35;;;3.20;;
65656;SDS011;57397;50.096;14.404;2023-04-06T02:22:31;5.68;;;3.60;;
65656;SDS011;57397;50.096;14.404;2023-04-06T02:24:56;4.72;;;3.58;;
65656;SDS011;57397;50.096;14.404;2023-04-06T02:27:22;6.40;;;3.50;;
65656;SDS011;57397;50.096;14.404;2023-04-06T02:29:47;5.72;;;3.60;;
65656;SDS011;57397;50.096;14.404;2023-04-06T02:32:13;4.75;;;3.28;;
65656;SDS011;57397;50.096;14.404;2023-04-06T02:34:38;4.47;;;3.30;;
65656;SDS011;57397;50.096;14.404;2023-04-06T02:37:03;5.15;;;3.47;;
65656;SDS011;57397;50.096;14.404;2023-04-06T02:39:29;5.88;;;3.58;;
65656;SDS011;57397;50.096;14.404;2023-04-06T02:41:54;5.80;;;3.58;;
65656;SDS011;57397;50.096;14.404;2023-04-06T02:44:21;5.57;;;3.65;;
65656;SDS011;57397;50.096;14.404;2023-04-06T02:46:46;4.97;;;3.35;;
65656;SDS011;57397;50.096;14.404;2023-04-06T02:49:11;5.93;;;3.60;;
65656;SDS011;57397;50.096;14.404;2023-04-06T02:51:37;5.22;;;3.50;;
65656;SDS011;57397;50.096;14.404;2023-04-06T02:54:02;5.75;;;3.63;;
65656;SDS011;57397;50.096;14.404;2023-04-06T02:56:28;5.40;;;3.35;;
65656;SDS011;57397;50.096;14.404;2023-04-06T02:58:54;5.40;;;3.60;;
65656;SDS011;57397;50.096;14.404;2023-04-06T03:01:19;5.15;;;3.58;;
65656;SDS011;57397;50.096;14.404;2023-04-06T03:03:45;6.00;;;3.58;;
65656;SDS011;57397;50.096;14.404;2023-04-06T03:06:10;5.63;;;3.50;;
65656;SDS011;57397;50.096;14.404;2023-04-06T03:08:36;5.95;;;3.47;;
65656;SDS011;57397;50.096;14.404;2023-04-06T03:11:01;5.30;;;3.53;;
65656;SDS011;57397;50.096;14.404;2023-04-06T03:13:27;5.43;;;3.33;;
65656;SDS011;57397;50.096;14.404;2023-04-06T03:15:52;6.10;;;3.70;;
65656;SDS011;57397;50.096;14.404;2023-04-06T03:18:21;5.88;;;3.75;;
65656;SDS011;57397;50.096;14.404;2023-04-06T03:20:48;5.13;;;3.63;;
65656;SDS011;57397;50.096;14.404;2023-04-06T03:23:15;6.18;;;3.53;;
65656;SDS011;57397;50.096;14.404;2023-04-06T03:25:40;5.45;;;3.58;;
65656;SDS011;57397;50.096;14.404;2023-04-06T03:28:06;5.50;;;3.55;;
65656;SDS011;57397;50.096;14.404;2023-04-06T03:30:31;5.82;;;3.38;;
65656;SDS011;57397;50.096;14.404;2023-04-06T03:32:57;4.43;;;3.03;;
65656;SDS011;57397;50.096;14.404;2023-04-06T03:35:22;5.43;;;3.60;;
65656;SDS011;57397;50.096;14.404;2023-04-06T03:37:49;6.65;;;3.28;;
65656;SDS011;57397;50.096;14.404;2023-04-06T03:40:15;5.60;;;3.50;;
65656;SDS011;57397;50.096;14.404;2023-04-06T03:42:41;5.38;;;3.55;;
65656;SDS011;57397;50.096;14.404;2023-04-06T03:45:06;6.25;;;3.63;;
65656;SDS011;57397;50.096;14.404;2023-04-06T03:47:32;5.28;;;3.45;;
65656;SDS011;57397;50.096;14.404;2023-04-06T03:49:58;5.35;;;3.42;;
65656;SDS011;57397;50.096;14.404;2023-04-06T03:52:23;7.95;;;3.60;;
65656;SDS011;57397;50.096;14.404;2023-04-06T03:54:49;5.25;;;3.28;;
65656;SDS011;57397;50.096;14.404;2023-04-06T03:57:15;5.13;;;3.47;;
65656;SDS011;57397;50.096;14.404;2023-04-06T03:59:40;6.18;;;3.67;;
65656;SDS011;57397;50.096;14.404;2023-04-06T04:02:06;5.20;;;3.60;;
65656;SDS011;57397;50.096;14.404;2023-04-06T04:04:31;5.03;;;3.60;;
65656;SDS011;57397;50.096;14.404;2023-04-06T04:06:57;5.15;;;3.50;;
65656;SDS011;57397;50.096;14.404;2023-04-06T04:09:22;6.45;;;3.78;;
65656;SDS011;57397;50.096;14.404;2023-04-06T04:11:48;4.97;;;3.42;;
65656;SDS011;57397;50.096;14.404;2023-04-06T04:14:13;4.22;;;3.03;;
65656;SDS011;57397;50.096;14.404;2023-04-06T04:16:39;4.63;;;3.42;;
65656;SDS011;57397;50.096;14.404;2023-04-06T04:19:06;4.70;;;3.47;;
65656;SDS011;57397;50.096;14.404;2023-04-06T04:21:31;5.70;;;3.35;;
65656;SDS011;57397;50.096;14.404;2023-04-06T04:23:57;5.68;;;3.60;;
65656;SDS011;57397;50.096;14.404;2023-04-06T04:26:22;6.22;;;3.60;;
65656;SDS011;57397;50.096;14.404;2023-04-06T04:28:48;6.03;;;3.58;;
65656;SDS011;57397;50.096;14.404;2023-04-06T04:31:13;4.78;;;3.30;;
65656;SDS011;57397;50.096;14.404;2023-04-06T04:33:39;4.07;;;3.17;;
65656;SDS011;57397;50.096;14.404;2023-04-06T04:36:05;5.00;;;3.45;;
65656;SDS011;57397;50.096;14.404;2023-04-06T04:38:30;5.88;;;3.45;;
65656;SDS011;57397;50.096;14.404;2023-04-06T04:40:56;5.05;;;3.50;;
65656;SDS011;57397;50.096;14.404;2023-04-06T04:43:21;6.70;;;3.88;;
65656;SDS011;57397;50.096;14.404;2023-04-06T04:45:47;5.60;;;3.50;;
65656;SDS011;57397;50.096;14.404;2023-04-06T04:48:12;5.47;;;3.45;;
65656;SDS011;57397;50.096;14.404;2023-04-06T04:50:38;5.85;;;3.65;;
65656;SDS011;57397;50.096;14.404;2023-04-06T04:53:03;5.93;;;3.58;;
65656;SDS011;57397;50.096;14.404;2023-04-06T04:55:31;6.75;;;3.78;;
65656;SDS011;57397;50.096;14.404;2023-04-06T04:57:57;6.25;;;3.53;;
65656;SDS011;57397;50.096;14.404;2023-04-06T05:00:22;10.27;;;3.97;;
65656;SDS011;57397;50.096;14.404;2023-04-06T05:02:48;6.80;;;3.90;;
65656;SDS011;57397;50.096;14.404;2023-04-06T05:05:13;6.07;;;3.88;;
65656;SDS011;57397;50.096;14.404;2023-04-06T05:07:39;4.80;;;3.33;;
65656;SDS011;57397;50.096;14.404;2023-04-06T05:10:04;5.93;;;3.58;;
65656;SDS011;57397;50.096;14.404;2023-04-06T05:12:30;6.22;;;3.60;;
65656;SDS011;57397;50.096;14.404;2023-04-06T05:14:56;6.00;;;3.72;;
65656;SDS011;57397;50.096;14.404;2023-04-06T05:17:21;5.63;;;3.40;;
65656;SDS011;57397;50.096;14.404;2023-04-06T05:19:47;5.35;;;3.67;;
65656;SDS011;57397;50.096;14.404;2023-04-06T05:22:12;5.95;;;3.50;;
65656;SDS011;57397;50.096;14.404;2023-04-06T05:24:41;5.35;;;3.40;;
65656;SDS011;57397;50.096;14.404;2023-04-06T05:27:06;7.30;;;3.78;;
65656;SDS011;57397;50.096;14.404;2023-04-06T05:29:32;5.97;;;3.60;;
65656;SDS011;57397;50.096;14.404;2023-04-06T05:31:58;7.15;;;3.90;;
65656;SDS011;57397;50.096;14.404;2023-04-06T05:34:24;5.60;;;3.58;;
65656;SDS011;57397;50.096;14.404;2023-04-06T05:36:49;5.75;;;3.47;;
65656;SDS011;57397;50.096;14.404;2023-04-06T05:39:15;7.20;;;4.10;;
65656;SDS011;57397;50.096;14.404;2023-04-06T05:41:41;7.57;;;3.75;;
65656;SDS011;57397;50.096;14.404;2023-04-06T05:44:06;7.47;;;3.83;;
65656;SDS011;57397;50.096;14.404;2023-04-06T05:46:32;5.75;;;3.78;;
65656;SDS011;57397;50.096;14.404;2023-04-06T05:48:57;5.57;;;3.40;;
65656;SDS011;57397;50.096;14.404;2023-04-06T05:51:23;6.57;;;3.70;;
65656;SDS011;57397;50.096;14.404;2023-04-06T05:53:48;5.03;;;3.30;;
65656;SDS011;57397;50.096;14.404;2023-04-06T05:56:14;6.03;;;3.35;;
65656;SDS011;57397;50.096;14.404;2023-04-06T05:58:39;5.32;;;3.63;;
65656;SDS011;57397;50.096;14.404;2023-04-06T06:01:06;5.93;;;3.70;;
65656;SDS011;57397;50.096;14.404;2023-04-06T06:03:31;5.70;;;3.65;;
65656;SDS011;57397;50.096;14.404;2023-04-06T06:06:00;6.75;;;3.50;;
65656;SDS011;57397;50.096;14.404;2023-04-06T06:08:26;6.50;;;3.90;;
65656;SDS011;57397;50.096;14.404;2023-04-06T06:10:52;5.03;;;3.20;;
65656;SDS011;57397;50.096;14.404;2023-04-06T06:13:18;6.00;;;3.70;;
65656;SDS011;57397;50.096;14.404;2023-04-06T06:15:43;4.95;;;3.63;;
65656;SDS011;57397;50.096;14.404;2023-04-06T06:18:09;4.97;;;3.55;;
65656;SDS011;57397;50.096;14.404;2023-04-06T06:20:35;5.07;;;3.53;;
65656;SDS011;57397;50.096;14.404;2023-04-06T06:23:00;4.53;;;3.08;;
65656;SDS011;57397;50.096;14.404;2023-04-06T06:25:26;5.32;;;3.47;;
65656;SDS011;57397;50.096;14.404;2023-04-06T06:27:51;5.32;;;3.38;;
65656;SDS011;57397;50.096;14.404;2023-04-06T06:30:17;5.18;;;3.35;;
65656;SDS011;57397;50.096;14.404;2023-04-06T06:32:43;6.60;;;3.85;;
65656;SDS011;57397;50.096;14.404;2023-04-06T06:35:08;6.43;;;3.80;;
65656;SDS011;57397;50.096;14.404;2023-04-06T06:37:34;5.50;;;3.78;;
65656;SDS011;57397;50.096;14.404;2023-04-06T06:39:59;7.18;;;4.22;;
65656;SDS011;57397;50.096;14.404;2023-04-06T06:42:25;5.70;;;4.28;;
65656;SDS011;57397;50.096;14.404;2023-04-06T06:44:51;6.97;;;4.03;;
65656;SDS011;57397;50.096;14.404;2023-04-06T06:47:16;6.13;;;3.92;;
65656;SDS011;57397;50.096;14.404;2023-04-06T06:49:42;6.82;;;4.20;;
65656;SDS011;57397;50.096;14.404;2023-04-06T06:52:07;6.65;;;3.80;;
65656;SDS011;57397;50.096;14.404;2023-04-06T06:54:33;6.03;;;3.90;;
65656;SDS011;57397;50.096;14.404;2023-04-06T06:56:58;6.68;;;4.20;;
65656;SDS011;57397;50.096;14.404;2023-04-06T06:59:25;7.15;;;3.90;;
65656;SDS011;57397;50.096;14.404;2023-04-06T07:01:50;6.47;;;3.95;;
65656;SDS011;57397;50.096;14.404;2023-04-06T07:04:16;7.50;;;4.18;;
65656;SDS011;57397;50.096;14.404;2023-04-06T07:06:41;7.05;;;4.35;;
65656;SDS011;57397;50.096;14.404;2023-04-06T07:09:07;7.47;;;4.45;;
65656;SDS011;57397;50.096;14.404;2023-04-06T07:11:32;7.35;;;4.45;;
65656;SDS011;57397;50.096;14.404;2023-04-06T07:13:58;7.43;;;4.43;;
65656;SDS011;57397;50.096;14.404;2023-04-06T07:16:24;5.55;;;3.80;;
65656;SDS011;57397;50.096;14.404;2023-04-06T07:18:49;7.80;;;4.20;;
65656;SDS011;57397;50.096;14.404;2023-04-06T07:21:16;6.60;;;4.00;;
65656;SDS011;57397;50.096;14.404;2023-04-06T07:23:41;6.03;;;4.00;;
65656;SDS011;57397;50.096;14.404;2023-04-06T07:26:07;7.28;;;4.47;;
65656;SDS011;57397;50.096;14.404;2023-04-06T07:28:32;7.00;;;4.20;;
65656;SDS011;57397;50.096;14.404;2023-04-06T07:30:58;6.10;;;4.40;;
65656;SDS011;57397;50.096;14.404;2023-04-06T07:33:23;6.68;;;4.25;;
65656;SDS011;57397;50.096;14.404;2023-04-06T07:35:49;7.07;;;4.40;;
65656;SDS011;57397;50.096;14.404;2023-04-06T07:38:14;7.85;;;4.25;;
65656;SDS011;57397;50.096;14.404;2023-04-06T07:40:40;6.07;;;3.90;;
65656;SDS011;57397;50.096;14.404;2023-04-06T07:43:05;6.00;;;4.00;;
65656;SDS011;57397;50.096;14.404;2023-04-06T07:45:31;6.53;;;4.00;;
65656;SDS011;57397;50.096;14.404;2023-04-06T07:47:56;5.72;;;3.75;;
65656;SDS011;57397;50.096;14.404;2023-04-06T07:50:22;5.63;;;3.90;;
65656;SDS011;57397;50.096;14.404;2023-04-06T07:52:47;6.35;;;4.07;;
65656;SDS011;57397;50.096;14.404;2023-04-06T07:55:13;5.70;;;3.83;;
65656;SDS011;57397;50.096;14.404;2023-04-06T07:57:39;6.18;;;3.42;;
65656;SDS011;57397;50.096;14.404;2023-04-06T08:00:04;5.72;;;3.65;;
65656;SDS011;57397;50.096;14.404;2023-04-06T08:02:33;6.60;;;3.80;;
65656;SDS011;57397;50.096;14.404;2023-04-06T08:04:58;5.75;;;3.63;;
65656;SDS011;57397;50.096;14.404;2023-04-06T08:07:24;5.60;;;3.70;;
65656;SDS011;57397;50.096;14.404;2023-04-06T08:09:50;5.85;;;3.65;;
65656;SDS011;57397;50.096;14.404;2023-04-06T08:12:16;5.45;;;3.60;;
65656;SDS011;57397;50.096;14.404;2023-04-06T08:14:42;5.07;;;3.55;;
65656;SDS011;57397;50.096;14.404;2023-04-06T08:17:07;6.03;;;3.50;;
65656;SDS011;57397;50.096;14.404;2023-04-06T08:19:33;4.97;;;3.25;;
65656;SDS011;57397;50.096;14.404;2023-04-06T08:21:58;5.20;;;3.05;;
65656;SDS011;57397;50.096;14.404;2023-04-06T08:24:24;4.47;;;3.25;;
65656;SDS011;57397;50.096;14.404;2023-04-06T08:26:49;4.63;;;3.00;;
65656;SDS011;57397;50.096;14.404;2023-04-06T08:29:16;4.10;;;2.92;;
65656;SDS011;57397;50.096;14.404;2023-04-06T08:31:41;4.38;;;3.10;;
65656;SDS011;57397;50.096;14.404;2023-04-06T08:34:07;4.72;;;3.05;;
65656;SDS011;57397;50.096;14.404;2023-04-06T08:36:33;4.18;;;2.92;;
65656;SDS011;57397;50.096;14.404;2023-04-06T08:38:59;5.03;;;2.92;;
65656;SDS011;57397;50.096;14.404;2023-04-06T08:41:25;4.57;;;2.95;;
65656;SDS011;57397;50.096;14.404;2023-04-06T08:46:23;4.20;;;2.75;;
65656;SDS011;57397;50.096;14.404;2023-04-06T08:48:59;4.10;;;2.78;;
65656;SDS011;57397;50.096;14.404;2023-04-06T08:51:26;5.15;;;2.78;;
65656;SDS011;57397;50.096;14.404;2023-04-06T08:53:52;4.68;;;2.95;;
65656;SDS011;57397;50.096;14.404;2023-04-06T08:56:22;4.13;;;2.70;;
65656;SDS011;57397;50.096;14.404;2023-04-06T08:58:48;4.97;;;2.92;;
65656;SDS011;57397;50.096;14.404;2023-04-06T09:01:14;4.75;;;2.78;;
65656;SDS011;57397;50.096;14.404;2023-04-06T09:03:42;4.85;;;3.13;;
65656;SDS011;57397;50.096;14.404;2023-04-06T09:06:08;4.25;;;2.80;;
65656;SDS011;57397;50.096;14.404;2023-04-06T09:08:34;3.70;;;2.50;;
65656;SDS011;57397;50.096;14.404;2023-04-06T09:11:01;3.67;;;2.63;;
65656;SDS011;57397;50.096;14.404;2023-04-06T09:13:27;5.03;;;2.60;;
65656;SDS011;57397;50.096;14.404;2023-04-06T09:16:03;3.75;;;2.50;;
65656;SDS011;57397;50.096;14.404;2023-04-06T09:18:30;4.82;;;2.78;;
65656;SDS011;57397;50.096;14.404;2023-04-06T09:20:57;3.90;;;2.40;;
65656;SDS011;57397;50.096;14.404;2023-04-06T09:23:27;4.32;;;2.65;;
65656;SDS011;57397;50.096;14.404;2023-04-06T09:26:03;4.30;;;2.60;;
65656;SDS011;57397;50.096;14.404;2023-04-06T09:31:26;2.80;;;2.13;;
65656;SDS011;57397;50.096;14.404;2023-04-06T09:33:54;3.53;;;2.55;;
65656;SDS011;57397;50.096;14.404;2023-04-06T09:36:30;4.00;;;2.55;;
65656;SDS011;57397;50.096;14.404;2023-04-06T09:39:01;3.22;;;2.10;;
65656;SDS011;57397;50.096;14.404;2023-04-06T09:41:28;3.38;;;2.30;;
65656;SDS011;57397;50.096;14.404;2023-04-06T09:44:02;4.65;;;2.47;;
65656;SDS011;57397;50.096;14.404;2023-04-06T09:46:27;3.70;;;2.42;;
65656;SDS011;57397;50.096;14.404;2023-04-06T09:49:00;3.00;;;2.03;;
65656;SDS011;57397;50.096;14.404;2023-04-06T09:51:27;3.60;;;2.38;;
65656;SDS011;57397;50.096;14.404;2023-04-06T09:53:55;3.40;;;2.10;;
65656;SDS011;57397;50.096;14.404;2023-04-06T09:56:26;3.45;;;2.13;;
65656;SDS011;57397;50.096;14.404;2023-04-06T09:58:54;3.03;;;2.40;;
65656;SDS011;57397;50.096;14.404;2023-04-06T10:01:22;4.20;;;2.40;;
65656;SDS011;57397;50.096;14.404;2023-04-06T10:06:27;3.20;;;1.98;;
65656;SDS011;57397;50.096;14.404;2023-04-06T10:08:54;2.55;;;1.95;;
65656;SDS011;57397;50.096;14.404;2023-04-06T10:11:21;2.97;;;2.10;;
65656;SDS011;57397;50.096;14.404;2023-04-06T10:13:47;4.63;;;2.25;;
65656;SDS011;57397;50.096;14.404;2023-04-06T10:16:14;2.83;;;2.05;;
65656;SDS011;57397;50.096;14.404;2023-04-06T10:18:40;2.72;;;2.00;;
65656;SDS011;57397;50.096;14.404;2023-04-06T10:21:09;3.78;;;1.85;;
65656;SDS011;57397;50.096;14.404;2023-04-06T10:23:40;4.13;;;2.08;;
65656;SDS011;57397;50.096;14.404;2023-04-06T10:26:13;2.85;;;2.20;;
65656;SDS011;57397;50.096;14.404;2023-04-06T10:28:42;2.90;;;2.00;;
65656;SDS011;57397;50.096;14.404;2023-04-06T10:31:10;3.28;;;2.13;;
65656;SDS011;57397;50.096;14.404;2023-04-06T10:33:36;2.85;;;1.77;;
65656;SDS011;57397;50.096;14.404;2023-04-06T10:36:11;3.58;;;1.90;;
65656;SDS011;57397;50.096;14.404;2023-04-06T10:38:38;3.08;;;2.00;;
65656;SDS011;57397;50.096;14.404;2023-04-06T10:41:05;2.80;;;1.73;;
65656;SDS011;57397;50.096;14.404;2023-04-06T10:43:35;3.45;;;2.10;;
65656;SDS011;57397;50.096;14.404;2023-04-06T10:46:03;2.50;;;1.80;;
65656;SDS011;57397;50.096;14.404;2023-04-06T10:48:42;2.00;;;1.50;;
65656;SDS011;57397;50.096;14.404;2023-04-06T10:51:14;2.22;;;1.70;;
65656;SDS011;57397;50.096;14.404;2023-04-06T10:53:44;2.88;;;1.80;;
65656;SDS011;57397;50.096;14.404;2023-04-06T10:56:15;3.10;;;1.80;;
65656;SDS011;57397;50.096;14.404;2023-04-06T10:58:45;3.10;;;1.98;;
65656;SDS011;57397;50.096;14.404;2023-04-06T11:01:16;2.10;;;1.73;;
65656;SDS011;57397;50.096;14.404;2023-04-06T11:03:44;2.35;;;1.67;;
65656;SDS011;57397;50.096;14.404;2023-04-06T11:06:10;2.67;;;1.70;;
65656;SDS011;57397;50.096;14.404;2023-04-06T11:08:36;2.45;;;1.70;;
65656;SDS011;57397;50.096;14.404;2023-04-06T11:11:06;2.15;;;1.60;;
65656;SDS011;57397;50.096;14.404;2023-04-06T11:13:44;2.45;;;1.80;;
65656;SDS011;57397;50.096;14.404;2023-04-06T11:16:21;3.10;;;1.80;;
65656;SDS011;57397;50.096;14.404;2023-04-06T11:18:57;2.50;;;1.80;;
65656;SDS011;57397;50.096;14.404;2023-04-06T11:26:55;2.33;;;1.65;;
65656;SDS011;57397;50.096;14.404;2023-04-06T11:29:25;2.22;;;1.70;;
65656;SDS011;57397;50.096;14.404;2023-04-06T11:32:03;2.72;;;1.67;;
65656;SDS011;57397;50.096;14.404;2023-04-06T11:34:30;3.42;;;2.10;;
65656;SDS011;57397;50.096;14.404;2023-04-06T11:37:01;2.80;;;1.92;;
65656;SDS011;57397;50.096;14.404;2023-04-06T11:39:28;2.63;;;1.75;;
65656;SDS011;57397;50.096;14.404;2023-04-06T11:41:57;2.90;;;1.80;;
65656;SDS011;57397;50.096;14.404;2023-04-06T11:44:33;2.92;;;1.80;;
65656;SDS011;57397;50.096;14.404;2023-04-06T11:47:07;2.53;;;1.80;;
65656;SDS011;57397;50.096;14.404;2023-04-06T11:49:36;2.53;;;1.70;;
65656;SDS011;57397;50.096;14.404;2023-04-06T11:52:02;2.53;;;1.63;;
65656;SDS011;57397;50.096;14.404;2023-04-06T11:54:39;2.55;;;1.70;;
65656;SDS011;57397;50.096;14.404;2023-04-06T11:57:05;2.33;;;1.80;;
65656;SDS011;57397;50.096;14.404;2023-04-06T11:59:32;4.40;;;1.85;;
65656;SDS011;57397;50.096;14.404;2023-04-06T12:01:58;2.92;;;1.80;;
65656;SDS011;57397;50.096;14.404;2023-04-06T12:04:23;2.08;;;1.60;;
65656;SDS011;57397;50.096;14.404;2023-04-06T12:06:49;3.42;;;1.85;;
65656;SDS011;57397;50.096;14.404;2023-04-06T12:09:16;2.05;;;1.60;;
65656;SDS011;57397;50.096;14.404;2023-04-06T12:11:43;2.03;;;1.40;;
65656;SDS011;57397;50.096;14.404;2023-04-06T12:14:09;1.73;;;1.45;;
65656;SDS011;57397;50.096;14.404;2023-04-06T12:16:35;2.60;;;1.42;;
65656;SDS011;57397;50.096;14.404;2023-04-06T12:19:01;2.13;;;1.60;;
65656;SDS011;57397;50.096;14.404;2023-04-06T12:21:27;1.73;;;1.45;;
65656;SDS011;57397;50.096;14.404;2023-04-06T12:23:53;1.92;;;1.55;;
65656;SDS011;57397;50.096;14.404;2023-04-06T12:26:19;2.22;;;1.63;;
65656;SDS011;57397;50.096;14.404;2023-04-06T12:28:46;2.60;;;1.90;;
65656;SDS011;57397;50.096;14.404;2023-04-06T12:31:15;2.92;;;1.77;;
65656;SDS011;57397;50.096;14.404;2023-04-06T12:33:50;3.40;;;1.80;;
65656;SDS011;57397;50.096;14.404;2023-04-06T12:36:17;5.63;;;2.00;;
65656;SDS011;57397;50.096;14.404;2023-04-06T12:38:47;2.30;;;1.50;;
65656;SDS011;57397;50.096;14.404;2023-04-06T12:41:13;2.70;;;1.80;;
65656;SDS011;57397;50.096;14.404;2023-04-06T12:43:40;2.00;;;1.58;;
65656;SDS011;57397;50.096;14.404;2023-04-06T12:46:06;2.33;;;1.45;;
65656;SDS011;57397;50.096;14.404;2023-04-06T12:48:31;2.13;;;1.63;;
65656;SDS011;57397;50.096;14.404;2023-04-06T12:50:58;2.40;;;1.60;;
65656;SDS011;57397;50.096;14.404;2023-04-06T12:53:24;1.83;;;1.38;;
65656;SDS011;57397;50.096;14.404;2023-04-06T12:55:51;1.92;;;1.60;;
65656;SDS011;57397;50.096;14.404;2023-04-06T12:58:18;2.10;;;1.50;;
65656;SDS011;57397;50.096;14.404;2023-04-06T13:00:44;2.65;;;1.70;;
65656;SDS011;57397;50.096;14.404;2023-04-06T13:03:10;2.30;;;1.50;;
65656;SDS011;57397;50.096;14.404;2023-04-06T13:05:35;1.77;;;1.48;;
65656;SDS011;57397;50.096;14.404;2023-04-06T13:08:01;2.25;;;1.70;;
65656;SDS011;57397;50.096;14.404;2023-04-06T13:10:26;2.05;;;1.60;;
65656;SDS011;57397;50.096;14.404;2023-04-06T13:12:52;2.25;;;1.60;;
65656;SDS011;57397;50.096;14.404;2023-04-06T13:15:18;2.10;;;1.55;;
65656;SDS011;57397;50.096;14.404;2023-04-06T13:17:43;2.13;;;1.60;;
65656;SDS011;57397;50.096;14.404;2023-04-06T13:20:09;1.95;;;1.55;;
65656;SDS011;57397;50.096;14.404;2023-04-06T13:22:34;2.45;;;1.80;;
65656;SDS011;57397;50.096;14.404;2023-04-06T13:25:00;1.95;;;1.40;;
65656;SDS011;57397;50.096;14.404;2023-04-06T13:27:26;2.50;;;1.50;;
65656;SDS011;57397;50.096;14.404;2023-04-06T13:29:52;2.50;;;1.52;;
65656;SDS011;57397;50.096;14.404;2023-04-06T13:32:18;2.22;;;1.55;;
65656;SDS011;57397;50.096;14.404;2023-04-06T13:34:44;3.10;;;1.70;;
65656;SDS011;57397;50.096;14.404;2023-04-06T13:37:13;2.08;;;1.48;;
65656;SDS011;57397;50.096;14.404;2023-04-06T13:39:38;2.25;;;1.75;;
65656;SDS011;57397;50.096;14.404;2023-04-06T13:42:04;1.70;;;1.50;;
65656;SDS011;57397;50.096;14.404;2023-04-06T13:44:30;2.33;;;1.63;;
65656;SDS011;57397;50.096;14.404;2023-04-06T13:46:56;3.15;;;1.70;;
65656;SDS011;57397;50.096;14.404;2023-04-06T13:49:21;1.73;;;1.50;;
65656;SDS011;57397;50.096;14.404;2023-04-06T13:51:47;2.42;;;1.80;;
65656;SDS011;57397;50.096;14.404;2023-04-06T13:54:12;2.47;;;1.80;;
65656;SDS011;57397;50.096;14.404;2023-04-06T13:56:38;2.65;;;1.67;;
65656;SDS011;57397;50.096;14.404;2023-04-06T13:59:03;2.20;;;1.52;;
65656;SDS011;57397;50.096;14.404;2023-04-06T14:01:29;1.85;;;1.50;;
65656;SDS011;57397;50.096;14.404;2023-04-06T14:03:55;2.15;;;1.67;;
65656;SDS011;57397;50.096;14.404;2023-04-06T14:06:20;1.90;;;1.60;;
65656;SDS011;57397;50.096;14.404;2023-04-06T14:08:46;2.47;;;1.50;;
65656;SDS011;57397;50.096;14.404;2023-04-06T14:11:12;2.75;;;1.63;;
65656;SDS011;57397;50.096;14.404;2023-04-06T14:13:38;2.28;;;1.42;;
65656;SDS011;57397;50.096;14.404;2023-04-06T14:16:05;2.08;;;1.42;;
65656;SDS011;57397;50.096;14.404;2023-04-06T14:18:31;2.03;;;1.50;;
65656;SDS011;57397;50.096;14.404;2023-04-06T14:20:59;1.95;;;1.40;;
65656;SDS011;57397;50.096;14.404;2023-04-06T14:23:25;2.72;;;1.40;;
65656;SDS011;57397;50.096;14.404;2023-04-06T14:28:29;2.05;;;1.73;;
65656;SDS011;57397;50.096;14.404;2023-04-06T14:30:55;2.83;;;1.48;;
65656;SDS011;57397;50.096;14.404;2023-04-06T14:33:21;1.92;;;1.60;;
65656;SDS011;57397;50.096;14.404;2023-04-06T14:35:47;1.85;;;1.50;;
65656;SDS011;57397;50.096;14.404;2023-04-06T14:38:12;1.92;;;1.50;;
65656;SDS011;57397;50.096;14.404;2023-04-06T14:40:38;2.17;;;1.60;;
65656;SDS011;57397;50.096;14.404;2023-04-06T14:43:03;2.67;;;1.52;;
65656;SDS011;57397;50.096;14.404;2023-04-06T14:45:32;2.05;;;1.58;;